sensor_id;sensor_type;location;lat;lon;timestamp;pressure;altitude;pressure_sealevel;temperature;humidity
31225;BME280;17847;31.524;74.366;2023-04-04T00:01:09;98560.47;;;16.24;83.72
31225;BME280;17847;31.524;74.366;2023-04-04T00:03:41;98560.22;;;16.26;83.54
31225;BME280;17847;31.524;74.366;2023-04-04T00:06:10;98568.34;;;16.31;83.20
31225;BME280;17847;31.524;74.366;2023-04-04T00:08:40;98581.59;;;16.26;83.26
31225;BME280;17847;31.524;74.366;2023-04-04T00:11:10;98568.84;;;16.28;83.10
31225;BME280;17847;31.524;74.366;2023-04-04T00:13:40;98564.28;;;16.16;82.78
31225;BME280;17847;31.524;74.366;2023-04-04T00:16:09;98574.41;;;16.14;83.07
31225;BME280;17847;31.524;74.366;2023-04-04T00:18:39;98571.16;;;16.24;83.38
31225;BME280;17847;31.524;74.366;2023-04-04T00:21:08;98575.69;;;16.24;83.37
31225;BME280;17847;31.524;74.366;2023-04-04T00:23:38;98580.44;;;16.22;82.98
31225;BME280;17847;31.524;74.366;2023-04-04T00:26:07;98577.75;;;16.22;83.49
31225;BME280;17847;31.524;74.366;2023-04-04T00:28:39;98575.56;;;16.18;82.93
31225;BME280;17847;31.524;74.366;2023-04-04T00:31:09;98576.47;;;16.12;83.27
31225;BME280;17847;31.524;74.366;2023-04-04T00:33:38;98573.81;;;16.01;83.57
31225;BME280;17847;31.524;74.366;2023-04-04T00:36:07;98585.44;;;16.06;83.46
31225;BME280;17847;31.524;74.366;2023-04-04T00:38:38;98588.56;;;16.15;84.25
31225;BME280;17847;31.524;74.366;2023-04-04T00:41:07;98585.66;;;16.05;83.37
31225;BME280;17847;31.524;74.366;2023-04-04T00:43:37;98599.22;;;16.03;83.76
31225;BME280;17847;31.524;74.366;2023-04-04T00:46:09;98588.44;;;16.10;83.50
31225;BME280;17847;31.524;74.366;2023-04-04T00:48:43;98593.44;;;16.06;83.22
31225;BME280;17847;31.524;74.366;2023-04-04T00:51:13;98604.81;;;16.13;83.17
31225;BME280;17847;31.524;74.366;2023-04-04T00:53:45;98605.19;;;16.17;83.29
31225;BME280;17847;31.524;74.366;2023-04-04T00:56:15;98604.00;;;16.13;83.62
31225;BME280;17847;31.524;74.366;2023-04-04T00:58:50;98613.19;;;16.17;84.21
31225;BME280;17847;31.524;74.366;2023-04-04T01:01:20;98625.59;;;16.11;83.77
31225;BME280;17847;31.524;74.366;2023-04-04T01:03:50;98630.72;;;16.01;82.92
31225;BME280;17847;31.524;74.366;2023-04-04T01:06:19;98629.91;;;16.01;82.68
31225;BME280;17847;31.524;74.366;2023-04-04T01:08:50;98630.94;;;16.11;83.21
31225;BME280;17847;31.524;74.366;2023-04-04T01:11:20;98637.47;;;16.15;82.93
31225;BME280;17847;31.524;74.366;2023-04-04T01:13:51;98636.28;;;16.11;82.38
31225;BME280;17847;31.524;74.366;2023-04-04T01:16:21;98631.91;;;16.17;82.95
31225;BME280;17847;31.524;74.366;2023-04-04T01:18:53;98630.53;;;16.26;83.26
31225;BME280;17847;31.524;74.366;2023-04-04T01:21:23;98640.50;;;16.31;82.66
31225;BME280;17847;31.524;74.366;2023-04-04T01:24:01;98636.13;;;16.36;83.03
31225;BME280;17847;31.524;74.366;2023-04-04T01:26:49;98639.34;;;16.38;82.74
31225;BME280;17847;31.524;74.366;2023-04-04T01:29:19;98651.47;;;16.41;82.43
31225;BME280;17847;31.524;74.366;2023-04-04T01:31:56;98651.69;;;16.51;82.12
31225;BME280;17847;31.524;74.366;2023-04-04T01:34:42;98646.72;;;16.66;81.95
31225;BME280;17847;31.524;74.366;2023-04-04T01:37:48;98653.59;;;16.74;82.63
31225;BME280;17847;31.524;74.366;2023-04-04T01:40:27;98651.97;;;16.73;82.22
31225;BME280;17847;31.524;74.366;2023-04-04T01:42:57;98655.91;;;16.82;82.29
31225;BME280;17847;31.524;74.366;2023-04-04T01:45:29;98660.47;;;16.81;81.14
31225;BME280;17847;31.524;74.366;2023-04-04T01:48:01;98662.06;;;16.94;81.05
31225;BME280;17847;31.524;74.366;2023-04-04T01:50:31;98674.13;;;17.20;79.93
31225;BME280;17847;31.524;74.366;2023-04-04T01:53:01;98665.06;;;17.21;78.33
31225;BME280;17847;31.524;74.366;2023-04-04T01:55:30;98670.16;;;17.22;78.09
31225;BME280;17847;31.524;74.366;2023-04-04T01:58:00;98670.41;;;17.21;77.36
31225;BME280;17847;31.524;74.366;2023-04-04T02:00:30;98674.53;;;17.40;76.95
31225;BME280;17847;31.524;74.366;2023-04-04T02:03:00;98672.06;;;17.62;76.87
31225;BME280;17847;31.524;74.366;2023-04-04T02:05:30;98683.41;;;18.09;75.56
31225;BME280;17847;31.524;74.366;2023-04-04T02:07:59;98680.16;;;18.23;72.95
31225;BME280;17847;31.524;74.366;2023-04-04T02:10:38;98677.66;;;18.50;70.48
31225;BME280;17847;31.524;74.366;2023-04-04T02:13:07;98678.19;;;19.19;69.99
31225;BME280;17847;31.524;74.366;2023-04-04T02:15:37;98676.13;;;19.91;66.19
31225;BME280;17847;31.524;74.366;2023-04-04T02:18:07;98680.97;;;20.21;66.58
31225;BME280;17847;31.524;74.366;2023-04-04T02:20:37;98678.00;;;20.44;63.94
31225;BME280;17847;31.524;74.366;2023-04-04T02:23:06;98685.97;;;20.34;63.21
31225;BME280;17847;31.524;74.366;2023-04-04T02:25:36;98689.06;;;20.48;62.76
31225;BME280;17847;31.524;74.366;2023-04-04T02:28:05;98692.97;;;21.09;61.30
31225;BME280;17847;31.524;74.366;2023-04-04T02:30:34;98696.16;;;21.01;62.20
31225;BME280;17847;31.524;74.366;2023-04-04T02:33:04;98699.34;;;20.98;61.06
31225;BME280;17847;31.524;74.366;2023-04-04T02:35:33;98704.69;;;21.92;59.17
31225;BME280;17847;31.524;74.366;2023-04-04T02:38:03;98710.22;;;22.88;56.74
31225;BME280;17847;31.524;74.366;2023-04-04T02:40:40;98722.13;;;22.77;59.25
31225;BME280;17847;31.524;74.366;2023-04-04T02:43:10;98717.50;;;22.47;58.42
31225;BME280;17847;31.524;74.366;2023-04-04T02:45:40;98725.06;;;22.50;57.13
31225;BME280;17847;31.524;74.366;2023-04-04T02:48:28;98723.06;;;21.95;57.55
31225;BME280;17847;31.524;74.366;2023-04-04T02:51:01;98733.16;;;21.16;58.73
31225;BME280;17847;31.524;74.366;2023-04-04T02:53:32;98734.66;;;20.96;60.05
31225;BME280;17847;31.524;74.366;2023-04-04T02:56:14;98736.47;;;21.23;61.68
31225;BME280;17847;31.524;74.366;2023-04-04T02:58:43;98740.13;;;21.54;62.94
31225;BME280;17847;31.524;74.366;2023-04-04T03:01:13;98739.13;;;21.18;61.27
31225;BME280;17847;31.524;74.366;2023-04-04T03:03:43;98738.91;;;21.24;63.30
31225;BME280;17847;31.524;74.366;2023-04-04T03:06:14;98738.84;;;21.14;62.75
31225;BME280;17847;31.524;74.366;2023-04-04T03:08:47;98732.94;;;21.22;63.31
31225;BME280;17847;31.524;74.366;2023-04-04T03:11:17;98730.56;;;21.31;64.29
31225;BME280;17847;31.524;74.366;2023-04-04T03:13:51;98732.16;;;21.27;62.24
31225;BME280;17847;31.524;74.366;2023-04-04T03:16:32;98734.72;;;21.48;61.36
31225;BME280;17847;31.524;74.366;2023-04-04T03:19:02;98738.88;;;21.71;61.57
31225;BME280;17847;31.524;74.366;2023-04-04T03:21:31;98744.66;;;21.95;61.20
31225;BME280;17847;31.524;74.366;2023-04-04T03:24:00;98746.25;;;21.96;60.30
31225;BME280;17847;31.524;74.366;2023-04-04T03:26:31;98744.66;;;22.05;59.78
31225;BME280;17847;31.524;74.366;2023-04-04T03:29:03;98745.47;;;22.01;61.22
31225;BME280;17847;31.524;74.366;2023-04-04T03:31:32;98754.16;;;22.28;62.17
31225;BME280;17847;31.524;74.366;2023-04-04T03:34:02;98743.66;;;22.21;61.75
31225;BME280;17847;31.524;74.366;2023-04-04T03:36:32;98746.53;;;22.05;59.04
31225;BME280;17847;31.524;74.366;2023-04-04T03:39:01;98752.53;;;22.17;62.55
31225;BME280;17847;31.524;74.366;2023-04-04T03:41:31;98758.72;;;22.22;59.91
31225;BME280;17847;31.524;74.366;2023-04-04T03:44:03;98761.41;;;22.17;63.00
31225;BME280;17847;31.524;74.366;2023-04-04T03:46:33;98754.72;;;22.25;62.02
31225;BME280;17847;31.524;74.366;2023-04-04T03:49:02;98760.94;;;22.46;60.88
31225;BME280;17847;31.524;74.366;2023-04-04T03:51:32;98754.69;;;22.15;58.26
31225;BME280;17847;31.524;74.366;2023-04-04T03:54:03;98767.41;;;22.39;60.01
31225;BME280;17847;31.524;74.366;2023-04-04T03:56:33;98763.03;;;22.13;58.44
31225;BME280;17847;31.524;74.366;2023-04-04T03:59:04;98761.44;;;22.22;59.67
31225;BME280;17847;31.524;74.366;2023-04-04T04:01:35;98765.69;;;21.98;59.75
31225;BME280;17847;31.524;74.366;2023-04-04T04:04:05;98777.94;;;22.46;61.52
31225;BME280;17847;31.524;74.366;2023-04-04T04:06:34;98780.94;;;22.55;58.54
31225;BME280;17847;31.524;74.366;2023-04-04T04:09:05;98767.22;;;22.76;59.70
31225;BME280;17847;31.524;74.366;2023-04-04T04:11:35;98770.16;;;22.75;59.84
31225;BME280;17847;31.524;74.366;2023-04-04T04:14:04;98778.53;;;22.89;60.07
31225;BME280;17847;31.524;74.366;2023-04-04T04:16:38;98786.94;;;22.92;59.26
31225;BME280;17847;31.524;74.366;2023-04-04T04:19:13;98792.59;;;23.21;60.35
31225;BME280;17847;31.524;74.366;2023-04-04T04:21:42;98803.66;;;23.24;60.20
31225;BME280;17847;31.524;74.366;2023-04-04T04:24:12;98808.00;;;23.20;58.40
31225;BME280;17847;31.524;74.366;2023-04-04T04:26:41;98817.16;;;23.24;59.79
31225;BME280;17847;31.524;74.366;2023-04-04T04:29:14;98815.53;;;23.39;59.30
31225;BME280;17847;31.524;74.366;2023-04-04T04:31:45;98817.16;;;23.55;57.58
31225;BME280;17847;31.524;74.366;2023-04-04T04:34:14;98827.13;;;23.80;58.82
31225;BME280;17847;31.524;74.366;2023-04-04T04:36:45;98834.84;;;24.11;58.09
31225;BME280;17847;31.524;74.366;2023-04-04T04:39:25;98835.13;;;24.10;55.67
31225;BME280;17847;31.524;74.366;2023-04-04T04:42:21;98831.19;;;24.46;56.60
31225;BME280;17847;31.524;74.366;2023-04-04T04:44:55;98835.34;;;24.78;55.63
31225;BME280;17847;31.524;74.366;2023-04-04T04:47:25;98837.38;;;25.30;53.92
31225;BME280;17847;31.524;74.366;2023-04-04T04:49:55;98837.63;;;24.60;52.49
31225;BME280;17847;31.524;74.366;2023-04-04T04:52:37;98841.53;;;25.22;54.33
31225;BME280;17847;31.524;74.366;2023-04-04T04:55:07;98834.25;;;25.75;54.58
31225;BME280;17847;31.524;74.366;2023-04-04T04:57:45;98830.91;;;25.83;52.47
31225;BME280;17847;31.524;74.366;2023-04-04T05:00:22;98829.88;;;25.79;50.03
31225;BME280;17847;31.524;74.366;2023-04-04T05:02:54;98834.25;;;25.99;50.37
31225;BME280;17847;31.524;74.366;2023-04-04T05:05:33;98837.31;;;26.59;48.50
31225;BME280;17847;31.524;74.366;2023-04-04T05:08:08;98843.63;;;26.73;51.14
31225;BME280;17847;31.524;74.366;2023-04-04T05:10:44;98846.78;;;26.61;48.81
31225;BME280;17847;31.524;74.366;2023-04-04T05:13:14;98849.03;;;26.12;47.73
31225;BME280;17847;31.524;74.366;2023-04-04T05:15:45;98849.78;;;27.16;48.55
31225;BME280;17847;31.524;74.366;2023-04-04T05:18:16;98843.94;;;27.22;48.52
31225;BME280;17847;31.524;74.366;2023-04-04T05:20:51;98855.50;;;27.79;45.13
31225;BME280;17847;31.524;74.366;2023-04-04T05:23:25;98853.84;;;27.32;45.63
31225;BME280;17847;31.524;74.366;2023-04-04T05:25:56;98856.09;;;27.76;49.52
31225;BME280;17847;31.524;74.366;2023-04-04T05:28:31;98849.69;;;28.13;48.94
31225;BME280;17847;31.524;74.366;2023-04-04T05:31:03;98849.16;;;27.70;44.70
31225;BME280;17847;31.524;74.366;2023-04-04T05:33:35;98860.22;;;27.41;47.71
31225;BME280;17847;31.524;74.366;2023-04-04T05:36:12;98851.63;;;27.66;49.61
31225;BME280;17847;31.524;74.366;2023-04-04T05:38:51;98859.88;;;28.21;46.32
31225;BME280;17847;31.524;74.366;2023-04-04T05:41:23;98844.94;;;28.32;47.12
31225;BME280;17847;31.524;74.366;2023-04-04T05:43:59;98843.47;;;28.62;43.23
31225;BME280;17847;31.524;74.366;2023-04-04T05:46:29;98841.16;;;28.91;45.08
31225;BME280;17847;31.524;74.366;2023-04-04T05:48:59;98844.88;;;28.59;42.07
31225;BME280;17847;31.524;74.366;2023-04-04T05:51:29;98844.81;;;28.37;42.82
31225;BME280;17847;31.524;74.366;2023-04-04T05:54:07;98841.69;;;28.30;43.82
31225;BME280;17847;31.524;74.366;2023-04-04T05:56:38;98838.94;;;28.57;43.29
31225;BME280;17847;31.524;74.366;2023-04-04T05:59:15;98833.66;;;28.75;42.33
31225;BME280;17847;31.524;74.366;2023-04-04T06:02:00;98839.13;;;28.61;41.31
31225;BME280;17847;31.524;74.366;2023-04-04T06:04:31;98836.28;;;28.80;42.48
31225;BME280;17847;31.524;74.366;2023-04-04T06:07:03;98832.69;;;29.15;43.23
31225;BME280;17847;31.524;74.366;2023-04-04T06:09:33;98836.41;;;28.97;41.67
31225;BME280;17847;31.524;74.366;2023-04-04T06:12:04;98843.75;;;28.74;44.54
31225;BME280;17847;31.524;74.366;2023-04-04T06:14:37;98841.75;;;28.66;41.79
31225;BME280;17847;31.524;74.366;2023-04-04T06:17:07;98848.91;;;28.62;41.11
31225;BME280;17847;31.524;74.366;2023-04-04T06:19:37;98842.75;;;28.70;42.96
31225;BME280;17847;31.524;74.366;2023-04-04T06:22:06;98845.66;;;28.74;41.12
31225;BME280;17847;31.524;74.366;2023-04-04T06:24:39;98842.94;;;28.60;44.61
31225;BME280;17847;31.524;74.366;2023-04-04T06:27:11;98844.38;;;28.57;43.22
31225;BME280;17847;31.524;74.366;2023-04-04T06:29:41;98847.72;;;28.54;43.46
31225;BME280;17847;31.524;74.366;2023-04-04T06:32:14;98849.22;;;28.74;41.94
31225;BME280;17847;31.524;74.366;2023-04-04T06:34:44;98845.28;;;28.67;41.79
31225;BME280;17847;31.524;74.366;2023-04-04T06:37:16;98855.19;;;28.63;41.50
31225;BME280;17847;31.524;74.366;2023-04-04T06:39:56;98841.00;;;28.25;41.30
31225;BME280;17847;31.524;74.366;2023-04-04T06:42:27;98849.66;;;28.40;45.49
31225;BME280;17847;31.524;74.366;2023-04-04T06:45:01;98848.66;;;28.50;42.27
31225;BME280;17847;31.524;74.366;2023-04-04T06:47:31;98842.53;;;28.17;41.47
31225;BME280;17847;31.524;74.366;2023-04-04T06:50:01;98838.88;;;28.22;43.15
31225;BME280;17847;31.524;74.366;2023-04-04T06:52:30;98846.69;;;28.15;46.03
31225;BME280;17847;31.524;74.366;2023-04-04T06:55:02;98841.81;;;28.11;45.77
31225;BME280;17847;31.524;74.366;2023-04-04T06:57:32;98832.00;;;28.24;43.72
31225;BME280;17847;31.524;74.366;2023-04-04T07:00:01;98830.81;;;28.17;41.90
31225;BME280;17847;31.524;74.366;2023-04-04T07:02:31;98831.44;;;28.27;43.06
31225;BME280;17847;31.524;74.366;2023-04-04T07:05:01;98830.50;;;28.32;45.19
31225;BME280;17847;31.524;74.366;2023-04-04T07:07:31;98827.28;;;28.30;43.97
31225;BME280;17847;31.524;74.366;2023-04-04T07:10:01;98821.03;;;28.16;44.19
31225;BME280;17847;31.524;74.366;2023-04-04T07:12:31;98821.63;;;28.40;43.35
31225;BME280;17847;31.524;74.366;2023-04-04T07:15:00;98826.00;;;28.13;43.17
31225;BME280;17847;31.524;74.366;2023-04-04T07:17:31;98818.41;;;28.24;43.57
31225;BME280;17847;31.524;74.366;2023-04-04T07:20:01;98820.63;;;28.22;41.96
31225;BME280;17847;31.524;74.366;2023-04-04T07:22:31;98819.53;;;28.23;41.35
31225;BME280;17847;31.524;74.366;2023-04-04T07:25:00;98814.97;;;28.32;41.19
31225;BME280;17847;31.524;74.366;2023-04-04T07:27:30;98811.09;;;28.47;42.90
31225;BME280;17847;31.524;74.366;2023-04-04T07:30:00;98806.81;;;28.32;42.32
31225;BME280;17847;31.524;74.366;2023-04-04T07:32:30;98809.28;;;28.42;44.77
31225;BME280;17847;31.524;74.366;2023-04-04T07:34:59;98808.44;;;28.55;43.41
31225;BME280;17847;31.524;74.366;2023-04-04T07:37:29;98814.97;;;28.32;42.67
31225;BME280;17847;31.524;74.366;2023-04-04T07:39:58;98802.03;;;28.38;43.14
31225;BME280;17847;31.524;74.366;2023-04-04T07:42:27;98808.06;;;28.48;43.17
31225;BME280;17847;31.524;74.366;2023-04-04T07:44:58;98803.00;;;28.55;42.20
31225;BME280;17847;31.524;74.366;2023-04-04T07:47:28;98798.16;;;28.52;40.18
31225;BME280;17847;31.524;74.366;2023-04-04T07:49:58;98795.38;;;28.44;40.29
31225;BME280;17847;31.524;74.366;2023-04-04T07:52:27;98796.16;;;28.44;41.60
31225;BME280;17847;31.524;74.366;2023-04-04T07:54:56;98790.22;;;28.42;42.57
31225;BME280;17847;31.524;74.366;2023-04-04T07:57:28;98794.84;;;28.42;42.10
31225;BME280;17847;31.524;74.366;2023-04-04T07:59:58;98786.91;;;28.32;42.25
31225;BME280;17847;31.524;74.366;2023-04-04T08:02:27;98786.44;;;28.16;43.33
31225;BME280;17847;31.524;74.366;2023-04-04T08:04:57;98774.59;;;28.07;42.80
31225;BME280;17847;31.524;74.366;2023-04-04T08:07:26;98775.44;;;28.21;42.92
31225;BME280;17847;31.524;74.366;2023-04-04T08:09:57;98776.25;;;28.22;43.60
31225;BME280;17847;31.524;74.366;2023-04-04T08:12:26;98775.63;;;28.25;42.00
31225;BME280;17847;31.524;74.366;2023-04-04T08:14:56;98770.16;;;28.25;41.71
31225;BME280;17847;31.524;74.366;2023-04-04T08:17:25;98770.50;;;28.23;42.21
31225;BME280;17847;31.524;74.366;2023-04-04T08:19:55;98759.91;;;28.22;42.49
31225;BME280;17847;31.524;74.366;2023-04-04T08:22:25;98760.69;;;28.08;42.53
31225;BME280;17847;31.524;74.366;2023-04-04T08:24:54;98757.38;;;28.11;42.16
31225;BME280;17847;31.524;74.366;2023-04-04T08:27:24;98755.63;;;28.29;41.94
31225;BME280;17847;31.524;74.366;2023-04-04T08:29:53;98752.31;;;28.32;40.99
31225;BME280;17847;31.524;74.366;2023-04-04T08:32:23;98748.56;;;28.28;42.99
31225;BME280;17847;31.524;74.366;2023-04-04T08:34:53;98739.31;;;28.16;43.24
31225;BME280;17847;31.524;74.366;2023-04-04T08:37:22;98739.81;;;28.04;42.40
31225;BME280;17847;31.524;74.366;2023-04-04T08:39:51;98734.78;;;28.11;41.05
31225;BME280;17847;31.524;74.366;2023-04-04T08:42:21;98732.47;;;28.18;43.11
31225;BME280;17847;31.524;74.366;2023-04-04T08:44:52;98733.22;;;27.83;42.82
31225;BME280;17847;31.524;74.366;2023-04-04T08:47:23;98732.22;;;27.79;42.75
31225;BME280;17847;31.524;74.366;2023-04-04T08:49:54;98733.69;;;27.85;42.86
31225;BME280;17847;31.524;74.366;2023-04-04T08:52:27;98720.97;;;27.94;42.73
31225;BME280;17847;31.524;74.366;2023-04-04T08:54:57;98716.75;;;28.01;41.72
31225;BME280;17847;31.524;74.366;2023-04-04T08:57:27;98717.16;;;27.95;41.58
31225;BME280;17847;31.524;74.366;2023-04-04T08:59:57;98710.63;;;27.82;41.66
31225;BME280;17847;31.524;74.366;2023-04-04T09:02:55;98711.00;;;27.89;42.69
31225;BME280;17847;31.524;74.366;2023-04-04T09:05:28;98705.91;;;27.74;42.25
31225;BME280;17847;31.524;74.366;2023-04-04T09:07:58;98700.13;;;27.76;41.26
31225;BME280;17847;31.524;74.366;2023-04-04T09:10:27;98693.19;;;27.69;41.38
31225;BME280;17847;31.524;74.366;2023-04-04T09:12:58;98692.69;;;27.67;42.15
31225;BME280;17847;31.524;74.366;2023-04-04T09:15:52;98687.06;;;27.50;41.25
31225;BME280;17847;31.524;74.366;2023-04-04T09:18:25;98681.91;;;27.49;40.26
31225;BME280;17847;31.524;74.366;2023-04-04T09:20:55;98686.63;;;27.43;42.50
31225;BME280;17847;31.524;74.366;2023-04-04T09:23:24;98671.03;;;27.49;41.34
31225;BME280;17847;31.524;74.366;2023-04-04T09:25:54;98677.78;;;27.65;42.58
31225;BME280;17847;31.524;74.366;2023-04-04T09:28:27;98666.28;;;27.68;40.57
31225;BME280;17847;31.524;74.366;2023-04-04T09:30:59;98667.56;;;27.70;40.99
31225;BME280;17847;31.524;74.366;2023-04-04T09:33:37;98666.81;;;27.56;39.45
31225;BME280;17847;31.524;74.366;2023-04-04T09:36:10;98658.31;;;27.44;42.55
31225;BME280;17847;31.524;74.366;2023-04-04T09:38:41;98666.88;;;27.38;41.81
31225;BME280;17847;31.524;74.366;2023-04-04T09:41:17;98657.53;;;27.30;40.52
31225;BME280;17847;31.524;74.366;2023-04-04T09:43:49;98656.19;;;27.27;39.37
31225;BME280;17847;31.524;74.366;2023-04-04T09:46:19;98648.38;;;27.26;39.25
31225;BME280;17847;31.524;74.366;2023-04-04T09:48:49;98646.66;;;27.30;39.18
31225;BME280;17847;31.524;74.366;2023-04-04T09:51:19;98641.41;;;27.34;40.38
31225;BME280;17847;31.524;74.366;2023-04-04T09:53:49;98645.41;;;27.36;41.85
31225;BME280;17847;31.524;74.366;2023-04-04T09:56:19;98635.06;;;27.38;40.65
31225;BME280;17847;31.524;74.366;2023-04-04T09:58:50;98635.63;;;27.35;39.37
31225;BME280;17847;31.524;74.366;2023-04-04T10:01:32;98627.69;;;27.25;38.40
31225;BME280;17847;31.524;74.366;2023-04-04T10:04:03;98630.63;;;27.29;40.06
31225;BME280;17847;31.524;74.366;2023-04-04T10:06:35;98628.50;;;27.25;39.61
31225;BME280;17847;31.524;74.366;2023-04-04T10:09:07;98633.94;;;27.25;38.60
31225;BME280;17847;31.524;74.366;2023-04-04T10:11:37;98628.81;;;27.24;39.03
31225;BME280;17847;31.524;74.366;2023-04-04T10:14:08;98631.13;;;27.17;40.11
31225;BME280;17847;31.524;74.366;2023-04-04T10:16:44;98622.88;;;27.08;39.54
31225;BME280;17847;31.524;74.366;2023-04-04T10:19:14;98616.31;;;27.09;40.35
31225;BME280;17847;31.524;74.366;2023-04-04T10:21:47;98616.63;;;27.08;39.42
31225;BME280;17847;31.524;74.366;2023-04-04T10:24:16;98605.13;;;26.97;38.21
31225;BME280;17847;31.524;74.366;2023-04-04T10:26:47;98611.88;;;27.00;38.70
31225;BME280;17847;31.524;74.366;2023-04-04T10:29:16;98608.47;;;27.08;38.85
31225;BME280;17847;31.524;74.366;2023-04-04T10:31:50;98605.75;;;27.08;38.26
31225;BME280;17847;31.524;74.366;2023-04-04T10:34:44;98605.84;;;27.03;40.08
31225;BME280;17847;31.524;74.366;2023-04-04T10:37:22;98601.41;;;27.07;40.22
31225;BME280;17847;31.524;74.366;2023-04-04T10:40:15;98596.47;;;27.09;40.78
31225;BME280;17847;31.524;74.366;2023-04-04T10:42:49;98591.16;;;27.04;39.27
31225;BME280;17847;31.524;74.366;2023-04-04T10:45:20;98594.47;;;27.01;40.58
31225;BME280;17847;31.524;74.366;2023-04-04T10:47:49;98595.78;;;26.90;40.62
31225;BME280;17847;31.524;74.366;2023-04-04T10:50:20;98590.41;;;26.85;38.18
31225;BME280;17847;31.524;74.366;2023-04-04T10:52:50;98580.84;;;26.87;39.14
31225;BME280;17847;31.524;74.366;2023-04-04T10:55:22;98584.72;;;26.86;40.35
31225;BME280;17847;31.524;74.366;2023-04-04T10:57:52;98589.19;;;26.77;39.27
31225;BME280;17847;31.524;74.366;2023-04-04T11:00:23;98582.75;;;26.73;40.76
31225;BME280;17847;31.524;74.366;2023-04-04T11:05:37;98578.09;;;26.73;40.97
31225;BME280;17847;31.524;74.366;2023-04-04T11:08:17;98579.91;;;26.64;40.88
31225;BME280;17847;31.524;74.366;2023-04-04T11:10:50;98567.25;;;26.60;41.92
31225;BME280;17847;31.524;74.366;2023-04-04T11:13:32;98576.38;;;26.50;41.72
31225;BME280;17847;31.524;74.366;2023-04-04T11:16:11;98572.84;;;26.50;40.58
31225;BME280;17847;31.524;74.366;2023-04-04T11:18:47;98573.16;;;26.48;40.21
31225;BME280;17847;31.524;74.366;2023-04-04T11:21:18;98572.34;;;26.48;41.31
31225;BME280;17847;31.524;74.366;2023-04-04T11:29:00;98563.13;;;26.30;41.50
31225;BME280;17847;31.524;74.366;2023-04-04T11:31:36;98569.25;;;26.22;42.13
31225;BME280;17847;31.524;74.366;2023-04-04T11:34:10;98557.88;;;26.20;41.97
31225;BME280;17847;31.524;74.366;2023-04-04T11:39:29;98548.63;;;26.21;41.51
31225;BME280;17847;31.524;74.366;2023-04-04T11:42:11;98565.22;;;26.19;41.63
31225;BME280;17847;31.524;74.366;2023-04-04T11:45:01;98563.88;;;26.17;41.35
31225;BME280;17847;31.524;74.366;2023-04-04T11:47:31;98563.16;;;26.11;42.18
31225;BME280;17847;31.524;74.366;2023-04-04T11:50:06;98568.38;;;26.08;41.74
31225;BME280;17847;31.524;74.366;2023-04-04T11:52:36;98570.88;;;26.04;42.86
31225;BME280;17847;31.524;74.366;2023-04-04T11:55:18;98576.09;;;26.01;42.82
31225;BME280;17847;31.524;74.366;2023-04-04T11:57:49;98570.75;;;25.96;42.36
31225;BME280;17847;31.524;74.366;2023-04-04T12:00:34;98574.06;;;25.92;43.20
31225;BME280;17847;31.524;74.366;2023-04-04T12:03:11;98575.16;;;25.91;42.29
31225;BME280;17847;31.524;74.366;2023-04-04T12:05:42;98574.94;;;25.88;43.18
31225;BME280;17847;31.524;74.366;2023-04-04T12:08:13;98575.03;;;25.83;43.04
31225;BME280;17847;31.524;74.366;2023-04-04T12:10:44;98575.91;;;25.78;42.81
31225;BME280;17847;31.524;74.366;2023-04-04T12:13:13;98575.38;;;25.76;43.37
31225;BME280;17847;31.524;74.366;2023-04-04T12:15:42;98580.31;;;25.74;42.88
31225;BME280;17847;31.524;74.366;2023-04-04T12:18:20;98577.66;;;25.69;44.06
31225;BME280;17847;31.524;74.366;2023-04-04T12:20:50;98587.03;;;25.58;43.68
31225;BME280;17847;31.524;74.366;2023-04-04T12:23:21;98584.94;;;25.50;43.40
31225;BME280;17847;31.524;74.366;2023-04-04T12:25:51;98589.66;;;25.44;43.46
31225;BME280;17847;31.524;74.366;2023-04-04T12:28:23;98589.47;;;25.36;43.96
31225;BME280;17847;31.524;74.366;2023-04-04T12:30:55;98587.94;;;25.30;44.18
31225;BME280;17847;31.524;74.366;2023-04-04T12:33:25;98582.84;;;25.23;43.92
31225;BME280;17847;31.524;74.366;2023-04-04T12:35:55;98596.25;;;25.15;43.99
31225;BME280;17847;31.524;74.366;2023-04-04T12:38:25;98588.75;;;25.07;43.80
31225;BME280;17847;31.524;74.366;2023-04-04T12:40:56;98588.81;;;25.01;44.26
31225;BME280;17847;31.524;74.366;2023-04-04T12:43:28;98588.00;;;25.01;43.29
31225;BME280;17847;31.524;74.366;2023-04-04T12:46:07;98600.25;;;24.98;44.14
31225;BME280;17847;31.524;74.366;2023-04-04T12:48:37;98598.63;;;24.97;44.71
31225;BME280;17847;31.524;74.366;2023-04-04T12:51:07;98604.41;;;24.91;46.06
31225;BME280;17847;31.524;74.366;2023-04-04T12:53:59;98601.50;;;24.82;46.73
31225;BME280;17847;31.524;74.366;2023-04-04T12:56:30;98608.31;;;24.75;45.87
31225;BME280;17847;31.524;74.366;2023-04-04T12:59:01;98611.06;;;24.70;46.75
31225;BME280;17847;31.524;74.366;2023-04-04T13:01:33;98610.13;;;24.60;45.42
31225;BME280;17847;31.524;74.366;2023-04-04T13:04:07;98604.47;;;24.52;47.31
31225;BME280;17847;31.524;74.366;2023-04-04T13:06:37;98613.41;;;24.52;46.62
31225;BME280;17847;31.524;74.366;2023-04-04T13:09:18;98614.03;;;24.44;49.36
31225;BME280;17847;31.524;74.366;2023-04-04T13:12:04;98617.94;;;24.33;47.62
31225;BME280;17847;31.524;74.366;2023-04-04T13:14:58;98618.81;;;24.24;47.35
31225;BME280;17847;31.524;74.366;2023-04-04T13:17:46;98619.63;;;24.24;49.73
31225;BME280;17847;31.524;74.366;2023-04-04T13:20:18;98616.16;;;24.13;47.75
31225;BME280;17847;31.524;74.366;2023-04-04T13:22:49;98621.34;;;24.10;48.48
31225;BME280;17847;31.524;74.366;2023-04-04T13:25:19;98622.44;;;24.04;49.04
31225;BME280;17847;31.524;74.366;2023-04-04T13:27:50;98624.34;;;24.03;50.50